Aérodrome :
LOGIN :

S'inscrire | Disclaimer

   EN    FR    IT 

 










Légende :    VFR   VFR Marginal   IFR   IFR Intensif   IFR Très Intensif
Visi : 
Plafond : 
>= 8 km
>= 3000ft
5 à 8 km
1000 à 3000 ft
1500m à 5 km
500 à 1000 ft
800 à 1500m
200 à 500 ft
< 800m
< 200 ft
Symboles :   Orages  Brouillard  Fortes neiges  Fortes précipitations  Vent > 20 kt
SIGMETs :   Divers  Orages  Givrage  Turbulence  Onde Orograph.  Cendres Volcan.






- Altitude de l'aérodrome : 289 ft
- Code IATA : ZAD


LDZD - Zadar

DERNIER METAR :
  • 091330Z 30018KT 9999 FEW055 33/17 Q1014 NOSIG

METARs EXPIRÉS :
  • 091300Z 30015KT 270V350 9999 FEW055 34/17 Q1014 NOSIG
  • 091230Z 30014KT 290V350 9999 FEW055 34/16 Q1014 NOSIG
  • 091200Z 31012KT 290V350 9999 FEW055 33/16 Q1014 NOSIG
  • 091130Z VRB09KT 9999 FEW055 33/16 Q1014 BECMG 30012KT

TAF AMD TAF LDZD
Valide du 09 à 13h jusqu'au 10 à 12h UTC


091338Z 0913/1012 30012KT 9999 FEW060 TX34/0913Z TN19/1004Z
PROB40
TEMPO 0913/0915 TS FEW050CB
BECMG 0916/0918 32005KT
BECMG 1010/1012 30010KT



MET'MAP, la Météo Aéronautique d'un coup d'oeil ! - Copyright ORBIFLY Décembre 2007 - Disclaimer

ORBIFLY MET'MAP TEAM :

Programmation & Développement : Alexandra Zaïnal
Sur une idée originale de : Baudouin d'Aumeries
Assistance à la programmation : Marc-Olivier Méhu
Soutien technique & logistique : Manuel Goepfert

Contact : metmap@orbifly.com




SOURCES & CREDITS :

   NOAA